Time;durP1;ratioP1;P1;durP2;ratioP2;P2;SDS_P1;SDS_P2;PMS_P1;PMS_P2;Temp;Humidity;BMP_temperature;BMP_pressure;BME280_temperature;BME280_humidity;BME280_pressure;Samples;Min_cycle;Max_cycle;Signal;HPM_P1;HPM_P2
2021/04/27 00:02:18;;;;;;;6.30;4.80;;;7.30;82.30;;;;;;5054231;28;20173;-83
2021/04/27 00:04:44;;;;;;;7.28;5.00;;;7.30;82.50;;;;;;5055192;28;20530;-82
2021/04/27 00:07:10;;;;;;;4.90;3.70;;;7.30;83.20;;;;;;5053864;28;20205;-82
2021/04/27 00:09:37;;;;;;;6.38;3.55;;;7.20;83.20;;;;;;5054044;28;20231;-83
2021/04/27 00:12:04;;;;;;;5.32;3.83;;;7.30;84.60;;;;;;5055460;28;20200;-82
2021/04/27 00:14:29;;;;;;;7.53;4.18;;;7.20;84.00;;;;;;5053709;28;20180;-82
2021/04/27 00:16:55;;;;;;;4.67;3.40;;;7.20;84.60;;;;;;5055181;28;20181;-84
2021/04/27 00:19:21;;;;;;;5.60;2.90;;;7.20;85.60;;;;;;5053921;28;20204;-81
2021/04/27 00:21:47;;;;;;;7.87;4.13;;;7.10;85.90;;;;;;5055119;28;20239;-82
2021/04/27 00:24:13;;;;;;;8.03;3.67;;;7.00;87.10;;;;;;5060358;28;20404;-82
2021/04/27 00:26:39;;;;;;;4.50;4.10;;;7.00;87.50;;;;;;5054874;28;20869;-82
2021/04/27 00:29:05;;;;;;;5.07;3.90;;;6.90;88.60;;;;;;5055227;28;20253;-84
2021/04/27 00:31:34;;;;;;;4.00;3.60;;;6.90;88.30;;;;;;5054795;28;20181;-83
2021/04/27 00:34:00;;;;;;;4.57;3.40;;;6.90;88.60;;;;;;5036980;28;20424;-82
2021/04/27 00:36:26;;;;;;;5.70;4.13;;;6.80;90.00;;;;;;5036451;28;20363;-84
2021/04/27 00:38:53;;;;;;;6.22;3.95;;;6.80;90.20;;;;;;5054793;28;20513;-82
2021/04/27 00:41:22;;;;;;;4.22;3.80;;;6.70;90.50;;;;;;5037118;28;20184;-83
2021/04/27 00:43:47;;;;;;;7.75;3.75;;;6.70;90.70;;;;;;5053436;28;20180;-82
2021/04/27 00:46:14;;;;;;;4.50;3.97;;;6.70;90.90;;;;;;5054105;28;20209;-83
2021/04/27 00:48:40;;;;;;;5.28;3.55;;;6.60;91.20;;;;;;5036712;28;20519;-81
2021/04/27 00:51:06;;;;;;;5.63;3.38;;;6.60;91.60;;;;;;5053243;28;20177;-81
2021/04/27 00:53:32;;;;;;;8.77;4.17;;;6.60;91.40;;;;;;5053149;28;20272;-82
2021/04/27 00:55:58;;;;;;;4.90;3.30;;;6.60;91.70;;;;;;5036411;28;20209;-81
2021/04/27 00:58:26;;;;;;;3.60;3.28;;;6.50;92.30;;;;;;5053242;28;20423;-82
2021/04/27 01:00:52;;;;;;;3.70;3.13;;;6.50;92.50;;;;;;5053080;28;20191;-82
2021/04/27 01:03:18;;;;;;;4.27;3.30;;;6.50;92.10;;;;;;5036509;28;20260;-83
2021/04/27 01:05:45;;;;;;;5.70;3.78;;;6.50;92.40;;;;;;5051720;28;20436;-81
2021/04/27 01:08:19;;;;;;;7.95;3.92;;;6.50;92.10;;;;;;5053209;28;20173;-82
2021/04/27 01:10:45;;;;;;;6.88;3.55;;;6.50;92.20;;;;;;5054231;28;20153;-82
2021/04/27 01:13:23;;;;;;;5.53;3.57;;;6.50;91.90;;;;;;5053281;28;20199;-81
2021/04/27 01:15:51;;;;;;;4.28;3.00;;;6.50;92.00;;;;;;5052425;28;20642;-82
2021/04/27 01:18:19;;;;;;;4.60;2.70;;;6.50;92.10;;;;;;5036417;28;20178;-82
2021/04/27 01:20:49;;;;;;;5.50;3.72;;;6.50;92.30;;;;;;5053214;28;20171;-82
2021/04/27 01:23:22;;;;;;;3.25;2.80;;;6.50;92.20;;;;;;5052683;28;20170;-81
2021/04/27 01:25:56;;;;;;;4.10;3.00;;;6.50;92.00;;;;;;5052617;28;20654;-82
2021/04/27 01:28:26;;;;;;;4.38;2.95;;;6.50;91.90;;;;;;5054077;28;20172;-81
2021/04/27 01:30:52;;;;;;;6.47;2.67;;;6.50;91.80;;;;;;5053819;28;20214;-82
2021/04/27 01:33:23;;;;;;;3.40;2.88;;;6.50;92.20;;;;;;5052830;28;20261;-83
2021/04/27 01:35:50;;;;;;;4.07;2.60;;;6.40;91.90;;;;;;5053745;28;20200;-81
2021/04/27 01:38:18;;;;;;;5.93;3.42;;;6.40;92.10;;;;;;5052622;28;20172;-82
2021/04/27 01:40:44;;;;;;;5.88;2.63;;;6.30;92.50;;;;;;5053718;28;20619;-82
2021/04/27 01:43:11;;;;;;;4.07;2.90;;;6.30;92.30;;;;;;5052430;28;20206;-81
2021/04/27 01:45:38;;;;;;;4.55;2.83;;;6.40;91.90;;;;;;5053776;28;20502;-82
2021/04/27 01:48:04;;;;;;;4.35;2.85;;;6.30;92.30;;;;;;5052423;28;20182;-83
2021/04/27 01:50:31;;;;;;;4.28;3.30;;;6.30;92.00;;;;;;5053642;28;20176;-82
2021/04/27 01:52:57;;;;;;;3.55;2.40;;;6.20;92.60;;;;;;5052549;28;20177;-81
2021/04/27 01:55:23;;;;;;;6.20;2.50;;;6.20;92.60;;;;;;5053247;28;20201;-82
2021/04/27 01:57:49;;;;;;;3.30;2.47;;;6.20;92.80;;;;;;5055869;28;20424;-82
2021/04/27 02:00:20;;;;;;;5.65;3.03;;;6.20;92.80;;;;;;5052163;28;20178;-84
2021/04/27 02:02:46;;;;;;;4.28;2.88;;;6.20;92.90;;;;;;5053483;28;20222;-81
2021/04/27 02:05:13;;;;;;;4.50;2.90;;;6.10;92.80;;;;;;5052041;28;20204;-82
2021/04/27 02:07:39;;;;;;;3.25;2.75;;;6.10;93.00;;;;;;5053291;28;20197;-83
2021/04/27 02:10:07;;;;;;;8.90;3.10;;;6.10;92.80;;;;;;5052247;28;20176;-81
2021/04/27 02:12:36;;;;;;;3.40;2.40;;;6.10;93.00;;;;;;5052090;28;20412;-81
2021/04/27 02:15:03;;;;;;;4.00;2.35;;;6.20;92.80;;;;;;5052917;28;20590;-81
2021/04/27 02:17:40;;;;;;;4.55;3.15;;;6.20;92.90;;;;;;5051626;28;20190;-81
2021/04/27 02:20:07;;;;;;;3.92;2.40;;;6.10;92.90;;;;;;5051917;28;20159;-82
2021/04/27 02:22:33;;;;;;;3.85;2.40;;;6.10;92.90;;;;;;5053327;28;20203;-81
2021/04/27 02:25:00;;;;;;;4.82;2.53;;;6.10;93.00;;;;;;5052866;28;20202;-81
2021/04/27 02:27:27;;;;;;;4.10;2.75;;;6.10;93.20;;;;;;5051848;28;20243;-82
2021/04/27 02:29:54;;;;;;;3.17;2.67;;;6.10;92.70;;;;;;5053158;28;20177;-81
2021/04/27 02:32:20;;;;;;;2.60;2.40;;;6.10;93.30;;;;;;5051762;28;20182;-82
2021/04/27 02:34:48;;;;;;;3.95;2.75;;;6.00;93.20;;;;;;5052805;28;20327;-82
2021/04/27 02:37:18;;;;;;;2.95;2.53;;;6.00;93.60;;;;;;5053117;28;20615;-82
2021/04/27 02:39:43;;;;;;;4.28;2.60;;;5.90;93.50;;;;;;5053062;28;20166;-81
2021/04/27 02:42:10;;;;;;;5.53;2.87;;;5.90;93.80;;;;;;5051882;28;20188;-81
2021/04/27 02:44:36;;;;;;;2.45;2.25;;;5.90;94.10;;;;;;5068201;28;20180;-81
2021/04/27 02:47:02;;;;;;;4.18;2.97;;;5.90;93.90;;;;;;5051442;28;20295;-82
2021/04/27 02:49:28;;;;;;;9.15;2.90;;;5.80;93.90;;;;;;5051749;28;20165;-82
2021/04/27 02:51:53;;;;;;;2.80;2.17;;;5.80;94.40;;;;;;5051776;28;20181;-82
2021/04/27 02:54:19;;;;;;;4.50;2.47;;;5.80;94.40;;;;;;5052909;28;20166;-83
2021/04/27 02:56:45;;;;;;;2.70;2.40;;;5.80;94.50;;;;;;5052521;28;20231;-82
2021/04/27 02:59:11;;;;;;;5.90;2.73;;;5.80;94.60;;;;;;5051559;28;20180;-82
2021/04/27 03:01:37;;;;;;;3.33;2.20;;;5.70;94.90;;;;;;5052883;28;20229;-81
2021/04/27 03:04:04;;;;;;;3.30;2.97;;;5.70;94.60;;;;;;5052782;28;20408;-81
2021/04/27 03:06:30;;;;;;;5.03;2.75;;;5.60;95.20;;;;;;5052533;28;20316;-82
2021/04/27 03:08:56;;;;;;;4.68;2.78;;;5.60;95.10;;;;;;5051586;28;20197;-82
2021/04/27 03:11:22;;;;;;;4.10;2.90;;;5.60;95.30;;;;;;5051445;28;20208;-81
2021/04/27 03:13:48;;;;;;;5.93;3.20;;;5.70;95.30;;;;;;5052780;28;20416;-81
2021/04/27 03:16:13;;;;;;;3.53;2.67;;;5.70;95.70;;;;;;5052294;28;20467;-81
2021/04/27 03:18:39;;;;;;;4.37;2.73;;;5.60;96.00;;;;;;5052648;28;20227;-81
2021/04/27 03:21:05;;;;;;;3.57;2.47;;;5.60;95.90;;;;;;5052298;28;20416;-81
2021/04/27 03:23:31;;;;;;;3.90;2.27;;;5.60;95.90;;;;;;5052812;28;20174;-80
2021/04/27 03:25:58;;;;;;;3.20;2.80;;;5.60;95.80;;;;;;5052273;28;20439;-82
2021/04/27 03:28:23;;;;;;;3.60;3.03;;;5.60;96.20;;;;;;5052075;28;20188;-82
2021/04/27 03:30:49;;;;;;;4.40;3.43;;;5.50;96.70;;;;;;5056482;28;20618;-82
2021/04/27 03:33:15;;;;;;;4.30;2.60;;;5.40;96.80;;;;;;5054787;28;20178;-81
2021/04/27 03:35:44;;;;;;;7.13;3.00;;;5.40;97.10;;;;;;5055700;28;20213;-81
2021/04/27 03:38:11;;;;;;;3.45;2.50;;;5.40;97.20;;;;;;5055994;28;20518;-83
2021/04/27 03:40:38;;;;;;;3.88;2.70;;;5.40;97.50;;;;;;5054573;28;20176;-81
2021/04/27 03:43:04;;;;;;;5.50;3.20;;;5.40;97.50;;;;;;5055730;28;20169;-81
2021/04/27 03:45:36;;;;;;;4.90;2.80;;;5.40;97.70;;;;;;5055494;28;20223;-82
2021/04/27 03:48:06;;;;;;;5.15;2.67;;;5.30;97.80;;;;;;5055875;28;20465;-81
2021/04/27 03:50:33;;;;;;;5.18;2.80;;;5.20;97.90;;;;;;5055876;28;20181;-81
2021/04/27 03:52:58;;;;;;;4.38;3.13;;;5.30;98.40;;;;;;5055628;28;20244;-80
2021/04/27 03:55:24;;;;;;;3.10;2.80;;;5.30;98.50;;;;;;5055190;28;20201;-82
2021/04/27 03:57:50;;;;;;;3.65;2.63;;;5.20;98.60;;;;;;5055727;28;20170;-81
2021/04/27 04:00:16;;;;;;;4.50;3.00;;;5.20;99.30;;;;;;5055668;28;20180;-81
2021/04/27 04:02:42;;;;;;;4.50;2.80;;;5.20;99.30;;;;;;5055578;28;20165;-81
2021/04/27 04:05:08;;;;;;;3.20;2.90;;;5.20;99.30;;;;;;5055267;28;20572;-81
2021/04/27 04:07:34;;;;;;;5.32;3.10;;;5.20;99.40;;;;;;5053926;28;21018;-82
2021/04/27 04:10:00;;;;;;;6.57;3.77;;;5.20;99.80;;;;;;5055325;28;20173;-82
2021/04/27 04:12:25;;;;;;;4.80;2.57;;;5.20;99.90;;;;;;5037404;28;20270;-81
2021/04/27 04:14:53;;;;;;;3.50;2.50;;;5.10;99.90;;;;;;5053581;28;20611;-80
2021/04/27 04:17:19;;;;;;;5.65;2.42;;;5.10;99.90;;;;;;5055073;28;20216;-82
2021/04/27 04:19:45;;;;;;;3.30;2.87;;;5.10;99.90;;;;;;5055245;28;20680;-82
2021/04/27 04:22:11;;;;;;;3.13;2.45;;;5.10;99.90;;;;;;5055149;28;20462;-81
2021/04/27 04:24:37;;;;;;;3.77;2.40;;;5.10;99.90;;;;;;5053442;28;20169;-81
2021/04/27 04:27:03;;;;;;;3.43;2.70;;;5.10;99.90;;;;;;5053731;28;20243;-81
2021/04/27 04:29:28;;;;;;;4.40;2.55;;;5.00;99.90;;;;;;5054933;28;20275;-82
2021/04/27 04:31:54;;;;;;;5.87;2.53;;;5.00;99.90;;;;;;5055019;28;20263;-81
2021/04/27 04:34:20;;;;;;;3.23;2.90;;;5.00;99.90;;;;;;5053671;28;20453;-80
2021/04/27 04:36:47;;;;;;;3.20;2.90;;;5.00;99.90;;;;;;5054485;28;20201;-81
2021/04/27 04:39:13;;;;;;;4.28;2.60;;;5.00;99.90;;;;;;5054764;28;20169;-80
2021/04/27 04:41:38;;;;;;;4.13;2.77;;;5.10;99.90;;;;;;5053682;28;20736;-81
2021/04/27 04:44:05;;;;;;;8.67;2.93;;;5.00;99.90;;;;;;5054706;28;20408;-80
2021/04/27 04:46:31;;;;;;;2.30;2.10;;;5.00;99.90;;;;;;5052656;28;20209;-80
2021/04/27 04:48:57;;;;;;;2.40;1.97;;;5.00;99.90;;;;;;5036790;28;20659;-80
2021/04/27 04:51:23;;;;;;;2.78;2.38;;;5.00;99.90;;;;;;5054634;28;20411;-80
2021/04/27 04:53:49;;;;;;;2.60;2.40;;;5.00;99.90;;;;;;5053431;28;20177;-81
2021/04/27 04:56:15;;;;;;;4.53;2.80;;;5.00;99.90;;;;;;5052944;28;20205;-80
2021/04/27 04:58:41;;;;;;;4.67;2.67;;;5.00;99.90;;;;;;5053130;28;20248;-82
2021/04/27 05:01:06;;;;;;;2.47;2.20;;;5.00;99.90;;;;;;5036732;28;20586;-81
2021/04/27 05:03:32;;;;;;;2.90;2.07;;;5.00;99.90;;;;;;5054570;28;20177;-81
2021/04/27 05:05:57;;;;;;;3.50;2.50;;;5.00;99.90;;;;;;5052696;28;20224;-81
2021/04/27 05:08:26;;;;;;;2.70;2.20;;;5.10;99.90;;;;;;5036650;28;20176;-81
2021/04/27 05:10:51;;;;;;;4.13;2.70;;;5.10;99.90;;;;;;5054164;28;20162;-80
2021/04/27 05:13:17;;;;;;;3.60;2.83;;;5.10;99.90;;;;;;5036345;28;20188;-82
2021/04/27 05:15:43;;;;;;;2.77;2.40;;;5.20;99.90;;;;;;5052532;28;20203;-82
2021/04/27 05:18:09;;;;;;;2.60;2.10;;;5.20;99.90;;;;;;5054377;28;20174;-81
2021/04/27 05:20:35;;;;;;;3.10;2.37;;;5.20;99.90;;;;;;5052859;28;20185;-83
2021/04/27 05:23:01;;;;;;;5.67;2.80;;;5.30;99.90;;;;;;5053973;28;20459;-81
2021/04/27 05:25:28;;;;;;;12.10;2.70;;;5.40;99.90;;;;;;5053507;28;20459;-82
2021/04/27 05:27:54;;;;;;;2.95;2.20;;;5.50;99.90;;;;;;5052881;28;20529;-80
2021/04/27 05:30:20;;;;;;;4.47;2.40;;;5.50;99.90;;;;;;5054021;28;20197;-83
2021/04/27 05:32:46;;;;;;;3.45;2.33;;;5.60;99.90;;;;;;5036149;28;20222;-84
2021/04/27 05:35:12;;;;;;;4.73;3.03;;;5.60;99.90;;;;;;5053279;28;20257;-82
2021/04/27 05:37:38;;;;;;;2.13;1.92;;;5.60;99.90;;;;;;5053548;28;20210;-82
2021/04/27 05:40:05;;;;;;;5.30;2.67;;;5.70;99.90;;;;;;5052439;28;20638;-82
2021/04/27 05:42:31;;;;;;;5.47;2.55;;;5.80;99.90;;;;;;5052259;28;20189;-82
2021/04/27 05:44:56;;;;;;;2.63;2.43;;;5.80;99.90;;;;;;5053229;28;20212;-83
2021/04/27 05:47:22;;;;;;;8.63;2.70;;;5.90;99.90;;;;;;5052095;28;20239;-78
2021/04/27 05:49:48;;;;;;;5.70;2.50;;;6.00;99.90;;;;;;5053468;28;20164;-79
2021/04/27 05:52:16;;;;;;;2.80;2.13;;;6.00;99.90;;;;;;5051903;28;20169;-80
2021/04/27 05:54:41;;;;;;;4.05;2.13;;;6.10;99.90;;;;;;5053226;28;20169;-79
2021/04/27 05:57:07;;;;;;;3.40;2.40;;;6.20;99.90;;;;;;5053361;28;20196;-79
2021/04/27 05:59:33;;;;;;;3.30;2.43;;;6.20;99.90;;;;;;5053323;28;20264;-79
2021/04/27 06:01:59;;;;;;;2.97;2.67;;;6.20;99.90;;;;;;5053322;28;20169;-79
2021/04/27 06:04:24;;;;;;;4.53;2.60;;;6.40;99.90;;;;;;5051832;28;21008;-80
2021/04/27 06:06:50;;;;;;;3.93;2.43;;;6.40;99.90;;;;;;5053097;28;20213;-78
2021/04/27 06:09:16;;;;;;;3.83;2.53;;;6.40;99.90;;;;;;5051743;28;20177;-80
2021/04/27 06:11:43;;;;;;;4.53;2.80;;;6.40;99.90;;;;;;5051915;28;20260;-81
2021/04/27 06:14:09;;;;;;;4.53;2.60;;;6.60;99.90;;;;;;5053144;28;20512;-80
2021/04/27 06:16:35;;;;;;;5.23;2.53;;;6.50;99.90;;;;;;5052930;28;20193;-81
2021/04/27 06:19:01;;;;;;;3.75;2.30;;;6.60;99.90;;;;;;5051890;28;20426;-80
2021/04/27 06:21:26;;;;;;;4.77;2.77;;;6.70;99.90;;;;;;5051979;28;20181;-80
2021/04/27 06:23:53;;;;;;;4.60;2.40;;;6.80;99.90;;;;;;5052920;28;20443;-80
2021/04/27 06:26:20;;;;;;;3.00;2.55;;;6.90;99.90;;;;;;5052511;28;20663;-80
2021/04/27 06:28:45;;;;;;;6.88;2.60;;;6.90;99.90;;;;;;5053170;28;20177;-80
2021/04/27 06:31:11;;;;;;;6.50;3.00;;;7.00;99.90;;;;;;5053234;28;20177;-79
2021/04/27 06:33:37;;;;;;;5.77;2.53;;;7.10;99.80;;;;;;5053233;28;20245;-78
2021/04/27 06:36:03;;;;;;;8.47;3.00;;;7.20;99.70;;;;;;5052727;28;20193;-80
2021/04/27 06:38:29;;;;;;;3.60;2.80;;;7.30;99.30;;;;;;5052835;28;20256;-79
2021/04/27 06:40:54;;;;;;;3.53;2.70;;;7.40;99.00;;;;;;5052769;28;20205;-79
2021/04/27 06:43:21;;;;;;;5.70;2.53;;;7.50;98.70;;;;;;5052968;28;20188;-79
2021/04/27 06:45:47;;;;;;;3.22;2.15;;;7.60;98.40;;;;;;5052276;28;20205;-81
2021/04/27 06:48:12;;;;;;;4.23;2.63;;;7.70;97.60;;;;;;5052754;28;20227;-80
2021/04/27 06:50:39;;;;;;;3.03;2.60;;;7.80;98.20;;;;;;5052600;28;20166;-79
2021/04/27 06:53:05;;;;;;;6.88;3.03;;;7.90;98.30;;;;;;5052872;28;20166;-80
2021/04/27 06:55:32;;;;;;;3.80;2.63;;;8.10;97.40;;;;;;5052579;28;20174;-80
2021/04/27 06:58:04;;;;;;;10.43;2.90;;;8.10;97.00;;;;;;5053438;28;20407;-80
2021/04/27 07:00:30;;;;;;;5.43;3.40;;;8.30;96.70;;;;;;5050167;28;20649;-80
2021/04/27 07:02:55;;;;;;;4.50;3.03;;;8.40;95.60;;;;;;5051461;28;20192;-79
2021/04/27 07:05:21;;;;;;;8.40;3.40;;;8.40;95.00;;;;;;5056059;28;20225;-79
2021/04/27 07:07:47;;;;;;;4.30;3.27;;;8.40;94.10;;;;;;5056521;28;20170;-78
2021/04/27 07:10:12;;;;;;;9.60;3.50;;;8.50;94.10;;;;;;5056211;28;20182;-79
2021/04/27 07:12:38;;;;;;;6.20;3.47;;;8.50;93.90;;;;;;5055936;28;20181;-79
2021/04/27 07:15:04;;;;;;;8.13;3.60;;;8.50;93.90;;;;;;5055863;28;20212;-80
2021/04/27 07:17:30;;;;;;;3.88;3.25;;;8.40;93.40;;;;;;5056219;28;20193;-79
2021/04/27 07:19:57;;;;;;;4.33;3.20;;;8.70;93.70;;;;;;5056245;28;20185;-79
2021/04/27 07:22:24;;;;;;;6.18;2.97;;;8.70;92.80;;;;;;5056087;28;20173;-79
2021/04/27 07:24:50;;;;;;;7.78;3.13;;;8.70;92.90;;;;;;5038038;28;20328;-79
2021/04/27 07:27:15;;;;;;;7.07;3.80;;;8.80;93.00;;;;;;5056057;28;20194;-80
2021/04/27 07:29:41;;;;;;;9.60;4.80;;;9.10;92.50;;;;;;5056213;28;20224;-80
2021/04/27 07:32:10;;;;;;;8.93;5.00;;;9.10;92.70;;;;;;5056331;28;20227;-80
2021/04/27 07:34:35;;;;;;;5.43;3.20;;;9.30;92.30;;;;;;5055703;28;20687;-80
2021/04/27 07:37:01;;;;;;;4.93;4.00;;;9.40;92.60;;;;;;5054676;28;20284;-81
2021/04/27 07:39:27;;;;;;;7.07;3.50;;;9.50;91.90;;;;;;5055929;28;20178;-79
2021/04/27 07:41:53;;;;;;;4.20;3.27;;;9.50;91.80;;;;;;5055983;28;20174;-79
2021/04/27 07:44:18;;;;;;;6.53;3.60;;;9.60;92.40;;;;;;5054532;28;20590;-79
2021/04/27 07:46:44;;;;;;;8.93;3.77;;;9.70;90.70;;;;;;5053886;28;20710;-80
2021/04/27 07:49:10;;;;;;;4.47;3.40;;;9.50;90.80;;;;;;5054554;28;20181;-80
2021/04/27 07:51:36;;;;;;;3.50;3.20;;;9.70;90.60;;;;;;5055962;28;20231;-80
2021/04/27 07:54:02;;;;;;;4.23;3.50;;;9.80;90.70;;;;;;5054335;28;20177;-80
2021/04/27 07:56:29;;;;;;;7.85;4.72;;;10.00;90.00;;;;;;5037590;28;20440;-80
2021/04/27 07:58:57;;;;;;;7.78;4.20;;;10.00;90.10;;;;;;5055603;28;20238;-80
2021/04/27 08:01:22;;;;;;;7.97;3.67;;;10.10;89.40;;;;;;5054157;28;20176;-80
2021/04/27 08:04:42;;;;;;;4.47;3.37;;;10.10;87.70;;;;;;5055632;28;20412;-79
2021/04/27 08:07:07;;;;;;;3.23;2.93;;;10.20;88.50;;;;;;5055218;28;20254;-80
2021/04/27 08:09:33;;;;;;;8.20;3.50;;;10.40;88.00;;;;;;5054241;28;20498;-80
2021/04/27 08:11:59;;;;;;;4.77;3.13;;;10.80;87.50;;;;;;5055274;28;20169;-80
2021/04/27 08:14:27;;;;;;;4.57;3.37;;;11.00;86.90;;;;;;5054725;28;20173;-81
2021/04/27 08:16:53;;;;;;;8.23;2.73;;;11.10;86.00;;;;;;5037006;28;20282;-78
2021/04/27 08:19:18;;;;;;;7.40;4.10;;;11.50;86.00;;;;;;5054944;28;20473;-79
2021/04/27 08:21:44;;;;;;;5.03;2.40;;;11.80;87.20;;;;;;5054126;28;20180;-80
2021/04/27 08:24:10;;;;;;;5.57;3.77;;;11.70;84.50;;;;;;5055020;28;20170;-80
2021/04/27 08:26:36;;;;;;;5.77;3.73;;;11.40;83.00;;;;;;5054786;28;20434;-80
2021/04/27 08:29:02;;;;;;;5.13;3.30;;;11.80;83.40;;;;;;5054856;28;20394;-80
2021/04/27 08:31:28;;;;;;;6.63;3.80;;;12.10;80.60;;;;;;5053617;28;20197;-79
2021/04/27 08:33:54;;;;;;;5.40;3.00;;;11.90;81.00;;;;;;5053654;28;20443;-80
2021/04/27 08:36:21;;;;;;;5.97;2.73;;;11.70;81.50;;;;;;5053115;28;20725;-80
2021/04/27 08:38:46;;;;;;;3.23;2.63;;;12.20;80.30;;;;;;5054907;28;20574;-81
2021/04/27 08:41:12;;;;;;;10.43;2.90;;;12.10;79.60;;;;;;5054532;28;20378;-81
2021/04/27 08:43:39;;;;;;;4.67;2.80;;;12.40;79.90;;;;;;5053487;28;20188;-80
2021/04/27 08:46:05;;;;;;;7.07;2.80;;;12.90;81.40;;;;;;5053298;28;20558;-81
2021/04/27 08:48:31;;;;;;;3.53;2.57;;;13.30;78.80;;;;;;5053476;28;20500;-80
2021/04/27 08:50:57;;;;;;;8.00;3.23;;;13.20;77.40;;;;;;5054405;28;20924;-79
2021/04/27 08:53:23;;;;;;;3.60;2.50;;;13.10;75.20;;;;;;5054519;28;20444;-79
2021/04/27 08:55:49;;;;;;;4.10;3.17;;;13.00;78.20;;;;;;5054116;28;20246;-79
2021/04/27 08:58:15;;;;;;;4.83;3.40;;;13.30;75.30;;;;;;5054500;28;20450;-79
2021/04/27 09:00:43;;;;;;;5.47;3.00;;;13.90;73.70;;;;;;5036488;28;20943;-80
2021/04/27 09:03:11;;;;;;;3.10;2.83;;;13.80;71.40;;;;;;5054353;28;20494;-80
2021/04/27 09:05:44;;;;;;;3.43;2.97;;;14.00;73.20;;;;;;5053704;28;20459;-80
2021/04/27 09:08:11;;;;;;;9.33;3.00;;;13.70;70.90;;;;;;5054238;28;20404;-79
2021/04/27 09:10:45;;;;;;;6.20;3.47;;;14.00;71.80;;;;;;5054286;28;20840;-80
2021/04/27 09:13:15;;;;;;;4.67;3.07;;;13.90;69.00;;;;;;5052957;28;20821;-79
2021/04/27 09:15:51;;;;;;;5.90;3.70;;;14.20;72.80;;;;;;5053690;28;20432;-79
2021/04/27 09:18:33;;;;;;;3.67;3.20;;;14.10;68.80;;;;;;5054343;28;20455;-79
2021/04/27 09:21:03;;;;;;;9.10;3.77;;;14.40;70.60;;;;;;5053764;28;20412;-79
2021/04/27 09:23:30;;;;;;;8.87;3.43;;;14.80;68.80;;;;;;5053801;28;20424;-79
2021/04/27 09:26:08;;;;;;;3.63;3.10;;;14.90;67.30;;;;;;5052567;28;20819;-79
2021/04/27 09:28:45;;;;;;;5.80;2.90;;;14.90;67.70;;;;;;5053769;28;20412;-79
2021/04/27 09:31:24;;;;;;;3.00;2.70;;;15.10;66.50;;;;;;5053910;28;20485;-78
2021/04/27 09:33:51;;;;;;;5.33;3.80;;;15.60;66.00;;;;;;5053841;28;20419;-79
2021/04/27 09:36:22;;;;;;;5.60;2.93;;;15.80;62.50;;;;;;5052041;28;20572;-79
2021/04/27 09:38:50;;;;;;;4.93;2.83;;;16.00;64.10;;;;;;5052408;28;20777;-79
2021/04/27 09:41:16;;;;;;;8.10;2.97;;;15.70;64.40;;;;;;5052681;28;20423;-79
2021/04/27 09:43:45;;;;;;;4.03;3.13;;;15.60;66.20;;;;;;5023905;28;20453;-80
2021/04/27 09:46:16;;;;;;;3.40;3.00;;;15.80;65.70;;;;;;5051654;28;20217;-79
2021/04/27 09:48:45;;;;;;;3.40;2.77;;;15.80;62.60;;;;;;5050781;28;20420;-79
2021/04/27 09:51:14;;;;;;;4.43;3.60;;;16.20;63.60;;;;;;5052152;28;20770;-79
2021/04/27 09:53:42;;;;;;;3.50;2.93;;;16.30;63.70;;;;;;5051582;28;20412;-79
2021/04/27 09:56:08;;;;;;;5.97;3.97;;;16.60;60.80;;;;;;5050797;28;20437;-79
2021/04/27 09:58:37;;;;;;;5.90;3.53;;;16.10;60.50;;;;;;5051788;28;20858;-80
2021/04/27 10:01:05;;;;;;;7.40;3.40;;;16.40;61.50;;;;;;5051568;28;20428;-79
2021/04/27 10:03:35;;;;;;;4.33;3.40;;;16.20;59.50;;;;;;5049367;28;20451;-80
2021/04/27 10:06:01;;;;;;;4.20;3.00;;;16.60;61.50;;;;;;5049857;28;20470;-80
2021/04/27 10:08:27;;;;;;;4.90;3.03;;;16.50;59.50;;;;;;5051359;28;20420;-79
2021/04/27 10:10:54;;;;;;;6.70;2.97;;;16.70;60.00;;;;;;5050988;28;20668;-80
2021/04/27 10:13:20;;;;;;;6.47;3.23;;;16.80;57.90;;;;;;5050895;28;20937;-80
2021/04/27 10:15:49;;;;;;;5.80;2.70;;;17.50;60.30;;;;;;5050943;28;20478;-79
2021/04/27 10:18:16;;;;;;;4.37;2.73;;;17.40;57.50;;;;;;5049172;28;20189;-80
2021/04/27 10:20:41;;;;;;;2.90;2.43;;;17.60;55.70;;;;;;5051258;28;20420;-80
2021/04/27 10:23:11;;;;;;;3.90;3.00;;;17.90;56.40;;;;;;5051057;28;20473;-79
2021/04/27 10:25:36;;;;;;;6.07;2.80;;;18.10;56.60;;;;;;5050704;28;20197;-79
2021/04/27 10:28:09;;;;;;;4.30;3.07;;;18.00;55.20;;;;;;5049126;28;20998;-80
2021/04/27 10:30:46;;;;;;;5.13;2.87;;;18.20;54.70;;;;;;5051463;28;20185;-80
2021/04/27 10:33:15;;;;;;;4.43;2.90;;;17.40;52.70;;;;;;5050409;28;20419;-79
2021/04/27 10:36:02;;;;;;;5.43;2.83;;;18.30;53.10;;;;;;5050975;28;20432;-79
2021/04/27 10:39:07;;;;;;;3.63;2.73;;;19.10;52.80;;;;;;5053638;28;20419;-80
2021/04/27 10:41:53;;;;;;;4.40;3.00;;;19.80;52.90;;;;;;4972757;28;20478;-80
2021/04/27 10:44:21;;;;;;;2.70;2.33;;;19.90;51.20;;;;;;4972250;28;20431;-80
2021/04/27 10:46:54;;;;;;;4.53;2.70;;;19.60;51.10;;;;;;5023873;28;20470;-80
2021/04/27 10:49:43;;;;;;;3.30;3.00;;;20.30;49.50;;;;;;5054159;28;20817;-79
2021/04/27 10:52:29;;;;;;;3.03;2.80;;;20.20;49.90;;;;;;5053936;28;20416;-79
2021/04/27 10:55:30;;;;;;;5.53;2.50;;;20.20;47.10;;;;;;5054661;28;20422;-79
2021/04/27 10:58:01;;;;;;;3.10;2.80;;;20.60;49.40;;;;;;5054108;28;20408;-79
2021/04/27 11:00:41;;;;;;;4.10;2.87;;;20.60;49.30;;;;;;5053891;28;20803;-79
2021/04/27 11:03:10;;;;;;;3.63;2.70;;;21.00;46.10;;;;;;5054215;28;20549;-79
2021/04/27 11:06:05;;;;;;;3.40;2.97;;;20.90;47.70;;;;;;5052417;28;20589;-79
2021/04/27 11:08:45;;;;;;;3.83;2.70;;;20.80;48.30;;;;;;5054878;28;20748;-79
2021/04/27 11:11:20;;;;;;;3.78;2.75;;;20.70;46.80;;;;;;5054064;28;20403;-79
2021/04/27 11:13:46;;;;;;;4.87;2.83;;;20.80;46.30;;;;;;5055014;28;20181;-79
2021/04/27 11:16:29;;;;;;;3.00;2.80;;;20.20;44.00;;;;;;5053953;28;20837;-80
2021/04/27 11:19:22;;;;;;;4.40;3.10;;;19.80;45.50;;;;;;5052242;28;20473;-79
2021/04/27 11:21:51;;;;;;;3.00;2.80;;;19.60;45.90;;;;;;5054317;28;20428;-79
2021/04/27 11:24:35;;;;;;;3.30;3.00;;;20.40;46.80;;;;;;5054083;28;20408;-79
2021/04/27 11:27:01;;;;;;;6.17;3.17;;;20.90;42.20;;;;;;5053459;28;20459;-79
2021/04/27 11:29:34;;;;;;;5.20;3.07;;;21.30;45.20;;;;;;5052725;28;20446;-80
2021/04/27 11:32:13;;;;;;;4.90;3.00;;;21.90;45.20;;;;;;5053377;28;20491;-79
2021/04/27 11:34:55;;;;;;;3.77;3.30;;;22.10;42.50;;;;;;5052000;28;20939;-79
2021/04/27 11:37:31;;;;;;;5.43;3.20;;;21.80;41.90;;;;;;5052401;28;20435;-79
2021/04/27 11:39:59;;;;;;;4.80;3.20;;;22.10;46.10;;;;;;5053690;28;20506;-79
2021/04/27 11:42:30;;;;;;;3.47;3.10;;;22.20;43.50;;;;;;5053558;28;20802;-79
2021/04/27 11:44:59;;;;;;;3.27;2.97;;;22.30;43.30;;;;;;5052504;28;20432;-79
2021/04/27 11:47:25;;;;;;;4.10;3.37;;;22.70;42.60;;;;;;5052126;28;20514;-79
2021/04/27 11:49:51;;;;;;;4.63;3.30;;;22.10;40.30;;;;;;5053453;28;20416;-78
2021/04/27 11:52:49;;;;;;;3.23;3.03;;;22.50;43.10;;;;;;5053435;28;20905;-79
2021/04/27 11:55:21;;;;;;;5.73;3.43;;;22.50;42.10;;;;;;5052113;28;20676;-79
2021/04/27 11:57:52;;;;;;;3.03;2.73;;;22.60;41.80;;;;;;5053891;28;20557;-80
2021/04/27 12:00:25;;;;;;;3.63;3.33;;;23.40;42.70;;;;;;5053192;28;20433;-79
2021/04/27 12:02:51;;;;;;;5.83;2.73;;;23.60;39.10;;;;;;5052808;28;20407;-78
2021/04/27 12:05:17;;;;;;;4.40;3.43;;;22.80;40.60;;;;;;5052991;28;20459;-78
2021/04/27 12:07:43;;;;;;;3.87;3.33;;;23.80;40.00;;;;;;5053880;28;20236;-78
2021/04/27 12:10:10;;;;;;;3.93;3.53;;;23.40;38.00;;;;;;5052288;28;20411;-79
2021/04/27 12:12:35;;;;;;;3.70;3.10;;;23.60;38.20;;;;;;5053228;28;20263;-78
2021/04/27 12:15:03;;;;;;;3.80;3.30;;;23.20;39.80;;;;;;5052847;28;20489;-78
2021/04/27 12:17:36;;;;;;;3.97;3.07;;;22.80;38.80;;;;;;5035425;28;20208;-78
2021/04/27 12:20:12;;;;;;;4.93;3.30;;;23.60;39.10;;;;;;5050615;28;21209;-79
2021/04/27 12:22:55;;;;;;;3.80;3.00;;;23.80;37.60;;;;;;5051822;28;20525;-80
2021/04/27 12:25:28;;;;;;;4.17;3.37;;;24.50;40.30;;;;;;5051888;28;20456;-80
2021/04/27 12:28:06;;;;;;;4.47;3.90;;;25.30;38.90;;;;;;5053402;28;20412;-79
2021/04/27 12:30:34;;;;;;;4.10;3.10;;;24.50;38.40;;;;;;5053321;28;20585;-79
2021/04/27 12:33:05;;;;;;;3.73;3.43;;;23.60;38.40;;;;;;5051593;28;20423;-79
2021/04/27 12:35:34;;;;;;;3.23;3.03;;;24.20;35.30;;;;;;5052617;28;20420;-80
2021/04/27 12:38:04;;;;;;;6.20;3.13;;;24.50;38.10;;;;;;5051633;28;21078;-80
2021/04/27 12:40:58;;;;;;;4.90;3.00;;;24.90;38.40;;;;;;5051323;28;20507;-78
2021/04/27 12:43:31;;;;;;;3.80;3.50;;;25.40;36.60;;;;;;5051425;28;20416;-79
2021/04/27 12:46:01;;;;;;;3.60;3.30;;;24.80;35.40;;;;;;5049673;28;20589;-78
2021/04/27 12:48:29;;;;;;;7.00;2.87;;;24.70;36.90;;;;;;5051651;28;20433;-79
2021/04/27 12:51:04;;;;;;;5.20;3.67;;;24.60;38.00;;;;;;5052630;28;20515;-79
2021/04/27 12:53:38;;;;;;;3.70;3.20;;;24.90;35.70;;;;;;5052751;28;20434;-80
2021/04/27 12:56:12;;;;;;;3.93;3.43;;;25.50;37.00;;;;;;5051773;28;20533;-80
2021/04/27 12:58:40;;;;;;;3.50;3.20;;;25.20;36.90;;;;;;5052571;28;20424;-80
2021/04/27 13:01:07;;;;;;;5.83;3.63;;;25.80;37.40;;;;;;5050175;28;20427;-79